Time;durP1;ratioP1;P1;durP2;ratioP2;P2;SDS_P1;SDS_P2;PMS_P1;PMS_P2;Temp;Humidity;BMP_temperature;BMP_pressure;BME280_temperature;BME280_humidity;BME280_pressure;Samples;Min_cycle;Max_cycle;Signal;HPM_P1;HPM_P2
2022/04/27 00:00:17;;;;;;;;;4.75;1.75;;;;;;;;6200269;23;8796;-52
2022/04/27 00:03:03;;;;;;;;;6.25;2.75;;;;;;;;6200103;23;8733;-50
2022/04/27 00:05:49;;;;;;;;;8.00;3.00;;;;;;;;6199654;23;8733;-51
2022/04/27 00:08:36;;;;;;;;;3.50;0.75;;;;;;;;6200223;23;8753;-50
2022/04/27 00:11:21;;;;;;;;;2.00;1.75;;;;;;;;6199248;23;8737;-53
2022/04/27 00:14:06;;;;;;;;;2.00;1.50;;;;;;;;6225112;22;9473;-51
2022/04/27 00:16:55;;;;;;;;;5.00;3.25;;;;;;;;6200423;23;8736;-52
2022/04/27 00:19:40;;;;;;;;;1.50;1.50;;;;;;;;6200119;23;8753;-50
2022/04/27 00:22:25;;;;;;;;;4.25;1.75;;;;;;;;6199295;23;8725;-51
2022/04/27 00:25:16;;;;;;;;;2.00;1.00;;;;;;;;6199479;23;8717;-52
2022/04/27 00:28:10;;;;;;;;;3.50;3.50;;;;;;;;6199428;23;8729;-52
2022/04/27 00:30:59;;;;;;;;;6.00;1.00;;;;;;;;6199704;23;9505;-51
2022/04/27 00:33:45;;;;;;;;;8.00;4.00;;;;;;;;6200392;23;8732;-51
2022/04/27 00:36:31;;;;;;;;;4.50;4.50;;;;;;;;6200058;23;8911;-54
2022/04/27 00:39:27;;;;;;;;;6.50;2.00;;;;;;;;6199456;23;8749;-51
2022/04/27 00:42:23;;;;;;;;;4.00;2.00;;;;;;;;6199782;23;9504;-51
2022/04/27 00:45:27;;;;;;;;;5.25;4.75;;;;;;;;6199675;23;8855;-51
2022/04/27 00:48:12;;;;;;;;;4.25;2.75;;;;;;;;6199648;23;8749;-53
2022/04/27 00:51:00;;;;;;;;;3.00;1.50;;;;;;;;6198661;23;8733;-52
2022/04/27 00:53:45;;;;;;;;;3.25;3.00;;;;;;;;6199761;23;8721;-53
2022/04/27 00:56:31;;;;;;;;;8.25;3.00;;;;;;;;6199838;23;8757;-52
2022/04/27 00:59:16;;;;;;;;;3.00;1.00;;;;;;;;6199489;23;8772;-54
2022/04/27 01:02:04;;;;;;;;;7.00;2.75;;;;;;;;6199517;23;8710;-51
2022/04/27 01:04:52;;;;;;;;;4.25;2.75;;;;;;;;6199200;23;8717;-50
2022/04/27 01:07:39;;;;;;;;;4.75;2.00;;;;;;;;6199138;23;8745;-49
2022/04/27 01:10:29;;;;;;;;;3.00;3.00;;;;;;;;6199593;23;8741;-52
2022/04/27 01:13:18;;;;;;;;;2.25;1.00;;;;;;;;6197420;22;9583;-51
2022/04/27 01:16:24;;;;;;;;;5.75;2.50;;;;;;;;6200272;23;8713;-51
2022/04/27 01:19:14;;;;;;;;;3.50;2.25;;;;;;;;6200023;23;8757;-51
2022/04/27 01:22:00;;;;;;;;;5.50;3.75;;;;;;;;6199157;23;8729;-51
2022/04/27 01:24:56;;;;;;;;;4.00;3.00;;;;;;;;6198418;23;8713;-53
2022/04/27 01:27:45;;;;;;;;;2.75;2.75;;;;;;;;6200203;23;8713;-51
2022/04/27 01:30:34;;;;;;;;;3.75;2.25;;;;;;;;6199271;23;8737;-52
2022/04/27 01:33:39;;;;;;;;;4.50;3.50;;;;;;;;6199396;23;9476;-51
2022/04/27 01:36:39;;;;;;;;;4.25;2.75;;;;;;;;6199688;23;8737;-51
2022/04/27 01:39:24;;;;;;;;;7.25;3.75;;;;;;;;6198751;23;8741;-51
2022/04/27 01:42:15;;;;;;;;;4.00;2.75;;;;;;;;6199517;23;8745;-49
2022/04/27 01:45:00;;;;;;;;;1.50;1.00;;;;;;;;6198885;23;8717;-53
2022/04/27 01:47:44;;;;;;;;;5.00;2.00;;;;;;;;6198936;23;8737;-52
2022/04/27 01:50:31;;;;;;;;;3.00;1.50;;;;;;;;6199004;23;8740;-53
2022/04/27 01:56:20;;;;;;;;;3.00;2.00;;;;;;;;6199376;23;8733;-50
2022/04/27 01:59:08;;;;;;;;;5.50;3.00;;;;;;;;6198621;23;8760;-50
2022/04/27 02:02:17;;;;;;;;;6.25;1.75;;;;;;;;6199997;23;8756;-52
2022/04/27 02:05:02;;;;;;;;;0.75;0.00;;;;;;;;6200829;23;8737;-53
2022/04/27 02:07:48;;;;;;;;;4.75;0.75;;;;;;;;6200885;23;9470;-51
2022/04/27 02:10:34;;;;;;;;;4.25;2.25;;;;;;;;6200392;23;8753;-52
2022/04/27 02:13:20;;;;;;;;;4.00;2.00;;;;;;;;6200528;22;8768;-52
2022/04/27 02:16:04;;;;;;;;;5.25;2.00;;;;;;;;6200973;23;8725;-50
2022/04/27 02:18:55;;;;;;;;;2.00;2.00;;;;;;;;6200887;23;8761;-51
2022/04/27 02:21:42;;;;;;;;;6.25;2.75;;;;;;;;6200910;23;8728;-53
2022/04/27 02:24:27;;;;;;;;;3.25;1.50;;;;;;;;6200415;23;8729;-52
2022/04/27 02:27:13;;;;;;;;;2.75;2.75;;;;;;;;6201132;23;8733;-51
2022/04/27 02:29:59;;;;;;;;;6.75;2.00;;;;;;;;6200125;23;8737;-51
2022/04/27 02:32:46;;;;;;;;;3.50;0.75;;;;;;;;6200517;23;8721;-52
2022/04/27 02:35:33;;;;;;;;;2.25;2.25;;;;;;;;6200115;23;8835;-50
2022/04/27 02:38:19;;;;;;;;;7.00;3.75;;;;;;;;6200324;23;8724;-49
2022/04/27 02:41:05;;;;;;;;;2.50;2.00;;;;;;;;6200759;23;8744;-50
2022/04/27 02:43:51;;;;;;;;;5.75;2.00;;;;;;;;6200203;23;8724;-49
2022/04/27 02:46:47;;;;;;;;;5.50;2.50;;;;;;;;6199456;23;8729;-51
2022/04/27 02:53:00;;;;;;;;;2.25;2.00;;;;;;;;6199588;23;8753;-54
2022/04/27 02:56:06;;;;;;;;;4.00;2.00;;;;;;;;6199861;23;8749;-50
2022/04/27 02:58:50;;;;;;;;;7.00;2.75;;;;;;;;6199318;23;8908;-49
2022/04/27 03:01:35;;;;;;;;;3.75;2.25;;;;;;;;6200236;23;8729;-53
2022/04/27 03:04:19;;;;;;;;;9.75;2.00;;;;;;;;6200661;23;9528;-54
2022/04/27 03:07:28;;;;;;;;;4.00;1.25;;;;;;;;6200866;23;8733;-53
2022/04/27 03:10:15;;;;;;;;;7.25;2.00;;;;;;;;6199707;23;8741;-52
2022/04/27 03:13:26;;;;;;;;;8.00;3.00;;;;;;;;6215091;22;8750;-50
2022/04/27 03:16:10;;;;;;;;;2.75;2.25;;;;;;;;6327527;22;8722;-50
2022/04/27 03:18:54;;;;;;;;;5.00;1.50;;;;;;;;6327551;22;8762;-49
2022/04/27 03:21:40;;;;;;;;;8.75;3.00;;;;;;;;6327998;22;8821;-52
2022/04/27 03:24:27;;;;;;;;;5.00;1.75;;;;;;;;6328218;22;8738;-52
2022/04/27 03:27:22;;;;;;;;;2.00;2.00;;;;;;;;6327422;22;8837;-51
2022/04/27 03:30:06;;;;;;;;;2.00;2.00;;;;;;;;6327238;22;8750;-53
2022/04/27 03:32:54;;;;;;;;;4.00;2.00;;;;;;;;6327774;22;8715;-51
2022/04/27 03:35:46;;;;;;;;;4.00;2.00;;;;;;;;6326864;22;8707;-51
2022/04/27 03:38:31;;;;;;;;;1.50;1.50;;;;;;;;6328308;22;8738;-53
2022/04/27 03:41:20;;;;;;;;;5.75;3.50;;;;;;;;6328347;22;8719;-52
2022/04/27 03:44:08;;;;;;;;;5.25;2.50;;;;;;;;6328125;22;8715;-49
2022/04/27 03:47:12;;;;;;;;;5.25;3.75;;;;;;;;6328314;22;8742;-51
2022/04/27 03:50:03;;;;;;;;;2.25;2.25;;;;;;;;6327082;22;8730;-51
2022/04/27 03:52:49;;;;;;;;;6.50;2.00;;;;;;;;6327200;22;8719;-53
2022/04/27 03:55:34;;;;;;;;;6.50;3.75;;;;;;;;6328243;22;8718;-53
2022/04/27 03:58:24;;;;;;;;;5.25;3.00;;;;;;;;6327961;22;8730;-52
2022/04/27 04:01:09;;;;;;;;;5.00;2.25;;;;;;;;6326605;22;8715;-51
2022/04/27 04:03:59;;;;;;;;;3.00;2.00;;;;;;;;6326770;22;8727;-51
2022/04/27 04:06:44;;;;;;;;;3.75;2.00;;;;;;;;6326993;22;8715;-50
2022/04/27 04:09:30;;;;;;;;;3.75;1.75;;;;;;;;6327272;22;8726;-54
2022/04/27 04:12:17;;;;;;;;;4.00;1.00;;;;;;;;6327182;22;8710;-52
2022/04/27 04:15:03;;;;;;;;;6.25;3.25;;;;;;;;6229536;22;8752;-52
2022/04/27 04:17:48;;;;;;;;;1.00;1.00;;;;;;;;6200507;23;8733;-52
2022/04/27 04:20:33;;;;;;;;;7.50;3.50;;;;;;;;6199254;23;9504;-52
2022/04/27 04:23:19;;;;;;;;;5.25;3.00;;;;;;;;6199650;23;8697;-52
2022/04/27 04:29:21;;;;;;;;;8.00;4.50;;;;;;;;6199007;23;8733;-53
2022/04/27 04:32:10;;;;;;;;;5.25;3.00;;;;;;;;6200060;23;8733;-53
2022/04/27 04:35:00;;;;;;;;;5.25;1.75;;;;;;;;6199889;23;8745;-52
2022/04/27 04:37:45;;;;;;;;;3.25;2.75;;;;;;;;6199712;23;8733;-52
2022/04/27 04:40:30;;;;;;;;;4.75;3.00;;;;;;;;6199176;23;8737;-51
2022/04/27 04:43:20;;;;;;;;;5.00;3.25;;;;;;;;6199063;23;8725;-50
2022/04/27 04:46:27;;;;;;;;;7.75;4.00;;;;;;;;6199960;23;8737;-50
2022/04/27 04:49:12;;;;;;;;;4.75;2.00;;;;;;;;6199427;23;8748;-51
2022/04/27 04:51:58;;;;;;;;;6.00;3.00;;;;;;;;6199485;23;8835;-50
2022/04/27 04:54:57;;;;;;;;;5.00;3.25;;;;;;;;6199535;23;8737;-52
2022/04/27 04:57:42;;;;;;;;;9.25;4.75;;;;;;;;6199857;23;8737;-51
2022/04/27 05:00:27;;;;;;;;;4.00;2.75;;;;;;;;6200150;23;8745;-48
2022/04/27 05:03:37;;;;;;;;;5.75;4.25;;;;;;;;6199667;23;8728;-50
2022/04/27 05:06:32;;;;;;;;;3.25;3.00;;;;;;;;6200016;23;8717;-50
2022/04/27 05:09:27;;;;;;;;;6.50;4.00;;;;;;;;6199672;23;8721;-51
2022/04/27 05:12:11;;;;;;;;;4.75;3.75;;;;;;;;6198851;23;8725;-49
2022/04/27 05:14:57;;;;;;;;;6.00;3.00;;;;;;;;6199738;22;8744;-49
2022/04/27 05:17:41;;;;;;;;;6.00;3.00;;;;;;;;6199518;23;8717;-49
2022/04/27 05:20:28;;;;;;;;;8.00;4.50;;;;;;;;6199479;23;8761;-49
2022/04/27 05:23:16;;;;;;;;;11.50;4.75;;;;;;;;6199161;23;8733;-52
2022/04/27 05:26:00;;;;;;;;;2.00;2.00;;;;;;;;6200101;23;8756;-48
2022/04/27 05:31:58;;;;;;;;;8.00;5.50;;;;;;;;6199584;23;8722;-50
2022/04/27 05:34:44;;;;;;;;;6.75;4.75;;;;;;;;6199600;23;8729;-50
2022/04/27 05:37:29;;;;;;;;;5.50;4.75;;;;;;;;6200356;23;8729;-50
2022/04/27 05:40:13;;;;;;;;;4.50;2.00;;;;;;;;6199418;23;8757;-50
2022/04/27 05:43:07;;;;;;;;;11.25;6.75;;;;;;;;6201466;23;8721;-50
2022/04/27 05:45:56;;;;;;;;;6.50;4.25;;;;;;;;6199657;23;8733;-52
2022/04/27 05:48:40;;;;;;;;;8.75;5.25;;;;;;;;6200845;23;9476;-49
2022/04/27 05:51:27;;;;;;;;;10.25;5.00;;;;;;;;6200742;23;8740;-52
2022/04/27 05:54:16;;;;;;;;;8.50;4.00;;;;;;;;6200973;23;8745;-52
2022/04/27 05:57:03;;;;;;;;;9.00;4.25;;;;;;;;6199763;23;8729;-48
2022/04/27 05:59:51;;;;;;;;;9.75;7.00;;;;;;;;6200329;23;8737;-49
2022/04/27 06:02:36;;;;;;;;;5.25;4.25;;;;;;;;6199333;23;8741;-50
2022/04/27 06:05:22;;;;;;;;;9.00;6.25;;;;;;;;6200086;23;8737;-50
2022/04/27 06:08:09;;;;;;;;;7.25;5.00;;;;;;;;6196722;23;8725;-50
2022/04/27 06:10:56;;;;;;;;;9.25;6.00;;;;;;;;6199764;23;8729;-52
2022/04/27 06:13:47;;;;;;;;;14.25;11.50;;;;;;;;6198733;22;8760;-48
2022/04/27 06:16:34;;;;;;;;;9.00;6.25;;;;;;;;6199469;23;8737;-50
2022/04/27 06:19:18;;;;;;;;;8.25;4.50;;;;;;;;6199891;23;10018;-49
2022/04/27 06:22:06;;;;;;;;;7.00;5.50;;;;;;;;6198993;23;8741;-50
2022/04/27 06:24:51;;;;;;;;;12.00;7.00;;;;;;;;6200489;23;8729;-52
2022/04/27 06:27:48;;;;;;;;;8.25;5.50;;;;;;;;6199332;23;8733;-50
2022/04/27 06:30:53;;;;;;;;;8.25;3.50;;;;;;;;6200247;23;8721;-47
2022/04/27 06:33:40;;;;;;;;;9.00;7.00;;;;;;;;6198898;23;8725;-49
2022/04/27 06:36:24;;;;;;;;;10.50;6.25;;;;;;;;6200234;23;8725;-50
2022/04/27 06:39:14;;;;;;;;;6.00;6.00;;;;;;;;6199789;23;8733;-49
2022/04/27 06:42:00;;;;;;;;;9.25;3.50;;;;;;;;6199279;23;8741;-51
2022/04/27 06:44:48;;;;;;;;;10.50;4.75;;;;;;;;6198621;23;8709;-48
2022/04/27 06:47:33;;;;;;;;;8.50;4.25;;;;;;;;6199522;23;8733;-51
2022/04/27 06:50:18;;;;;;;;;11.00;5.00;;;;;;;;6198044;23;8749;-49
2022/04/27 06:53:06;;;;;;;;;7.50;6.25;;;;;;;;6198213;23;8729;-48
2022/04/27 06:56:10;;;;;;;;;5.50;5.00;;;;;;;;6197614;23;8729;-50
2022/04/27 06:59:04;;;;;;;;;5.00;3.00;;;;;;;;6198469;23;8760;-49
2022/04/27 07:01:49;;;;;;;;;7.50;4.00;;;;;;;;6198665;23;9583;-48
2022/04/27 07:04:35;;;;;;;;;11.25;5.00;;;;;;;;6199045;23;8725;-50
2022/04/27 07:07:20;;;;;;;;;5.50;5.50;;;;;;;;6197976;23;8721;-49
2022/04/27 07:10:04;;;;;;;;;5.75;4.00;;;;;;;;6198561;23;8725;-50
2022/04/27 07:12:52;;;;;;;;;7.50;3.00;;;;;;;;6198795;23;8722;-49
2022/04/27 07:15:36;;;;;;;;;7.00;4.00;;;;;;;;6196251;22;8776;-49
2022/04/27 07:18:21;;;;;;;;;5.00;3.00;;;;;;;;6198778;23;8713;-50
2022/04/27 07:21:08;;;;;;;;;3.50;2.25;;;;;;;;6196696;23;8729;-52
2022/04/27 07:24:05;;;;;;;;;3.25;2.25;;;;;;;;6198441;23;8717;-51
2022/04/27 07:26:49;;;;;;;;;11.25;5.75;;;;;;;;6196758;23;8733;-50
2022/04/27 07:29:39;;;;;;;;;3.00;2.00;;;;;;;;6196773;23;8725;-50
2022/04/27 07:38:40;;;;;;;;;2.50;2.50;;;;;;;;6359528;22;8747;-46
2022/04/27 07:41:26;;;;;;;;;6.25;3.50;;;;;;;;6358810;22;8727;-53
2022/04/27 07:44:28;;;;;;;;;5.75;4.50;;;;;;;;6351599;22;8734;-47
2022/04/27 07:47:13;;;;;;;;;5.25;4.25;;;;;;;;6358284;22;8727;-50
2022/04/27 07:50:01;;;;;;;;;7.00;4.00;;;;;;;;6358208;22;8730;-52
2022/04/27 07:52:45;;;;;;;;;13.25;5.50;;;;;;;;6358089;22;8773;-51
2022/04/27 07:55:30;;;;;;;;;4.25;2.75;;;;;;;;6358411;22;8735;-49
2022/04/27 07:58:19;;;;;;;;;4.75;3.00;;;;;;;;6358060;22;8714;-53
2022/04/27 08:01:23;;;;;;;;;7.25;4.00;;;;;;;;6358177;22;8731;-51
2022/04/27 08:04:10;;;;;;;;;8.50;3.50;;;;;;;;6357352;22;8715;-48
2022/04/27 08:07:05;;;;;;;;;2.25;2.25;;;;;;;;6358241;22;9498;-50
2022/04/27 08:10:15;;;;;;;;;7.25;3.25;;;;;;;;6357984;22;8730;-48
2022/04/27 08:13:00;;;;;;;;;4.00;2.75;;;;;;;;6357766;22;8714;-52
2022/04/27 08:15:45;;;;;;;;;6.25;3.75;;;;;;;;6357501;22;8719;-52
2022/04/27 08:18:34;;;;;;;;;4.25;2.00;;;;;;;;6358305;22;8735;-51
2022/04/27 08:21:27;;;;;;;;;6.50;4.75;;;;;;;;6358067;22;8722;-52
2022/04/27 08:24:16;;;;;;;;;4.25;3.50;;;;;;;;6356977;22;8735;-48
2022/04/27 08:27:00;;;;;;;;;4.75;3.75;;;;;;;;6356639;22;8711;-52
2022/04/27 08:29:46;;;;;;;;;6.50;4.00;;;;;;;;6357943;22;8727;-51
2022/04/27 08:32:32;;;;;;;;;10.75;3.00;;;;;;;;6357731;22;8746;-50
2022/04/27 08:35:21;;;;;;;;;6.00;2.25;;;;;;;;6356024;22;8726;-49
2022/04/27 08:38:06;;;;;;;;;6.00;2.75;;;;;;;;6355041;22;8742;-53
2022/04/27 08:40:51;;;;;;;;;3.25;3.25;;;;;;;;6358018;22;8743;-48
2022/04/27 08:43:36;;;;;;;;;3.25;2.25;;;;;;;;6356972;22;8715;-49
2022/04/27 08:46:23;;;;;;;;;3.50;3.00;;;;;;;;6357286;22;8726;-53
2022/04/27 08:49:30;;;;;;;;;8.25;4.00;;;;;;;;6357933;22;8727;-53
2022/04/27 08:52:18;;;;;;;;;3.75;1.00;;;;;;;;6357872;22;8726;-52
2022/04/27 08:55:03;;;;;;;;;7.75;5.25;;;;;;;;6356761;22;8835;-49
2022/04/27 08:57:50;;;;;;;;;8.75;4.50;;;;;;;;6355663;22;8722;-49
2022/04/27 09:00:38;;;;;;;;;2.75;2.50;;;;;;;;6357828;22;8734;-50
2022/04/27 09:03:40;;;;;;;;;3.50;3.00;;;;;;;;6357759;22;8711;-53
2022/04/27 09:06:50;;;;;;;;;7.25;4.00;;;;;;;;6357145;22;8699;-50
2022/04/27 09:09:37;;;;;;;;;7.00;4.25;;;;;;;;6357061;22;8865;-48
2022/04/27 09:12:23;;;;;;;;;5.25;2.50;;;;;;;;6357210;22;8715;-53
2022/04/27 09:15:09;;;;;;;;;5.50;3.50;;;;;;;;6356189;22;8719;-52
2022/04/27 09:21:01;;;;;;;;;5.50;2.00;;;;;;;;6357870;22;8750;-50
2022/04/27 09:24:05;;;;;;;;;2.75;2.00;;;;;;;;6357363;22;8735;-52
2022/04/27 09:26:59;;;;;;;;;7.25;2.25;;;;;;;;6356965;22;8754;-51
2022/04/27 09:29:56;;;;;;;;;5.25;3.50;;;;;;;;6357604;22;8754;-52
2022/04/27 09:33:02;;;;;;;;;5.50;3.50;;;;;;;;6357927;22;8833;-52
2022/04/27 09:35:56;;;;;;;;;5.50;4.25;;;;;;;;6357393;22;8723;-50
2022/04/27 09:38:41;;;;;;;;;10.75;3.50;;;;;;;;6357519;22;8767;-49
2022/04/27 09:41:44;;;;;;;;;6.75;4.00;;;;;;;;6357835;22;8723;-54
2022/04/27 09:44:45;;;;;;;;;5.00;2.50;;;;;;;;6357484;22;8726;-49
2022/04/27 09:47:43;;;;;;;;;2.75;2.75;;;;;;;;6356680;22;9497;-50
2022/04/27 09:50:46;;;;;;;;;6.50;4.00;;;;;;;;6357148;22;8726;-48
2022/04/27 09:53:31;;;;;;;;;5.25;3.50;;;;;;;;6355987;22;9505;-47
2022/04/27 09:56:17;;;;;;;;;5.75;4.00;;;;;;;;6357566;22;8758;-49
2022/04/27 09:59:03;;;;;;;;;6.50;5.00;;;;;;;;6357384;22;9474;-49
2022/04/27 10:01:50;;;;;;;;;5.50;2.50;;;;;;;;6357813;22;8703;-50
2022/04/27 10:04:35;;;;;;;;;8.00;5.75;;;;;;;;6357351;22;8719;-48
2022/04/27 10:07:21;;;;;;;;;6.50;3.25;;;;;;;;6357064;22;8718;-52
2022/04/27 10:10:09;;;;;;;;;7.75;4.25;;;;;;;;6357618;22;8703;-49
2022/04/27 10:12:56;;;;;;;;;9.00;4.00;;;;;;;;6357566;22;8715;-48
2022/04/27 10:15:48;;;;;;;;;5.75;3.75;;;;;;;;6357644;22;8715;-49
2022/04/27 10:18:33;;;;;;;;;5.50;2.50;;;;;;;;6355474;22;8861;-50
2022/04/27 10:22:01;;;;;;;;;3.00;2.75;;;;;;;;6357453;22;8746;-53
2022/04/27 10:24:46;;;;;;;;;8.25;6.75;;;;;;;;6358642;22;8738;-51
2022/04/27 10:27:42;;;;;;;;;11.00;7.25;;;;;;;;6359076;22;8715;-50
2022/04/27 10:30:41;;;;;;;;;10.00;7.50;;;;;;;;6356714;22;8860;-52
2022/04/27 10:33:52;;;;;;;;;18.00;15.00;;;;;;;;6358273;22;8833;-49
2022/04/27 10:36:38;;;;;;;;;6.75;5.25;;;;;;;;6358608;22;8738;-49
2022/04/27 10:39:32;;;;;;;;;9.50;6.00;;;;;;;;6358313;22;8738;-50
2022/04/27 10:42:26;;;;;;;;;10.00;7.50;;;;;;;;6359090;22;8715;-49
2022/04/27 10:45:23;;;;;;;;;8.25;7.50;;;;;;;;6358316;22;8722;-53
2022/04/27 10:48:42;;;;;;;;;8.50;6.25;;;;;;;;6358854;22;8710;-48
2022/04/27 10:51:27;;;;;;;;;5.75;4.25;;;;;;;;6358601;22;8711;-48
2022/04/27 10:54:12;;;;;;;;;6.75;4.00;;;;;;;;6358206;22;8722;-52
2022/04/27 10:57:14;;;;;;;;;10.75;4.50;;;;;;;;6356630;22;8703;-50
2022/04/27 11:00:05;;;;;;;;;9.00;6.00;;;;;;;;6358131;22;8738;-48
2022/04/27 11:02:53;;;;;;;;;5.75;5.00;;;;;;;;6358841;22;9491;-49
2022/04/27 11:05:40;;;;;;;;;10.25;5.75;;;;;;;;6356116;22;8715;-49
2022/04/27 11:08:44;;;;;;;;;11.00;6.50;;;;;;;;6358743;22;8723;-48
2022/04/27 11:11:31;;;;;;;;;7.00;4.25;;;;;;;;6356887;22;9286;-51
2022/04/27 11:14:16;;;;;;;;;6.50;3.75;;;;;;;;6354557;22;8715;-49
2022/04/27 11:17:07;;;;;;;;;7.75;4.50;;;;;;;;6358174;22;8758;-49
2022/04/27 11:19:53;;;;;;;;;7.00;4.75;;;;;;;;6357914;22;8739;-48
2022/04/27 11:22:39;;;;;;;;;7.50;4.25;;;;;;;;6358574;22;9462;-52
2022/04/27 11:25:31;;;;;;;;;9.25;5.00;;;;;;;;6356055;22;8730;-47
2022/04/27 11:28:39;;;;;;;;;5.75;4.50;;;;;;;;6358398;22;8711;-48
2022/04/27 11:31:25;;;;;;;;;11.25;3.75;;;;;;;;6357970;22;8719;-51
2022/04/27 11:34:23;;;;;;;;;7.25;4.00;;;;;;;;6351600;22;9489;-51
2022/04/27 11:37:20;;;;;;;;;7.00;4.00;;;;;;;;6354922;22;8747;-48
2022/04/27 11:40:31;;;;;;;;;9.75;7.25;;;;;;;;6356382;22;8750;-50
2022/04/27 11:43:25;;;;;;;;;3.25;1.75;;;;;;;;6356680;22;8719;-48
2022/04/27 11:46:11;;;;;;;;;6.50;3.25;;;;;;;;6357101;22;8727;-50
2022/04/27 11:48:58;;;;;;;;;7.50;3.00;;;;;;;;6357625;22;8727;-48
2022/04/27 11:51:48;;;;;;;;;9.75;5.00;;;;;;;;6355870;22;8711;-47
2022/04/27 11:54:34;;;;;;;;;4.75;4.75;;;;;;;;6355752;22;8707;-49
2022/04/27 11:57:23;;;;;;;;;6.50;5.75;;;;;;;;6356274;22;8699;-50
2022/04/27 12:00:09;;;;;;;;;7.25;4.50;;;;;;;;6357797;22;8739;-50
2022/04/27 12:03:07;;;;;;;;;6.50;4.00;;;;;;;;6355726;22;8722;-51
2022/04/27 12:05:57;;;;;;;;;5.75;4.25;;;;;;;;6357909;22;8703;-47
2022/04/27 12:08:53;;;;;;;;;5.75;2.50;;;;;;;;6357259;22;8833;-52
2022/04/27 12:11:37;;;;;;;;;4.25;2.25;;;;;;;;6357808;22;8731;-51
2022/04/27 12:14:27;;;;;;;;;7.50;4.00;;;;;;;;6357068;22;8735;-51
2022/04/27 12:17:34;;;;;;;;;7.50;3.50;;;;;;;;6357003;22;8711;-49
2022/04/27 12:20:27;;;;;;;;;4.00;3.00;;;;;;;;6356489;22;8762;-51
2022/04/27 12:23:18;;;;;;;;;3.75;3.50;;;;;;;;6356074;22;8849;-48
2022/04/27 12:26:03;;;;;;;;;9.50;6.50;;;;;;;;6357367;22;9392;-47
2022/04/27 12:28:53;;;;;;;;;2.50;0.25;;;;;;;;6356589;22;8731;-51
2022/04/27 12:31:57;;;;;;;;;4.50;4.25;;;;;;;;6357150;22;8723;-48
2022/04/27 12:37:54;;;;;;;;;6.75;6.75;;;;;;;;6354900;22;8735;-50
2022/04/27 12:40:43;;;;;;;;;9.25;5.50;;;;;;;;6357760;22;8742;-52
2022/04/27 12:43:37;;;;;;;;;6.25;5.00;;;;;;;;6348427;22;8715;-48
2022/04/27 12:46:47;;;;;;;;;7.75;4.00;;;;;;;;6356504;22;8707;-53
2022/04/27 12:49:35;;;;;;;;;8.25;6.25;;;;;;;;6357403;22;9315;-51
2022/04/27 12:52:36;;;;;;;;;7.75;6.00;;;;;;;;6356027;22;8719;-50
2022/04/27 12:55:44;;;;;;;;;6.75;6.00;;;;;;;;6354553;22;8746;-52
2022/04/27 12:59:07;;;;;;;;;8.50;4.75;;;;;;;;6355362;22;8723;-51
2022/04/27 13:02:05;;;;;;;;;5.75;3.25;;;;;;;;6349123;22;8833;-49
2022/04/27 13:04:54;;;;;;;;;3.50;3.50;;;;;;;;6356144;22;8731;-50
2022/04/27 13:07:49;;;;;;;;;7.50;5.75;;;;;;;;6354683;22;9473;-49
2022/04/27 13:14:02;;;;;;;;;12.75;6.00;;;;;;;;6355118;22;9489;-48
2022/04/27 13:16:46;;;;;;;;;8.75;3.00;;;;;;;;6356160;22;8719;-48
2022/04/27 13:19:31;;;;;;;;;10.75;5.00;;;;;;;;6355160;22;8742;-50
2022/04/27 13:22:16;;;;;;;;;8.00;5.00;;;;;;;;6354772;22;8719;-49
2022/04/27 13:25:01;;;;;;;;;6.75;3.50;;;;;;;;6356054;22;8731;-53
2022/04/27 13:27:45;;;;;;;;;7.00;5.25;;;;;;;;6356260;22;8723;-49
2022/04/27 13:30:42;;;;;;;;;5.50;3.75;;;;;;;;6356817;22;8738;-51
2022/04/27 13:33:48;;;;;;;;;9.25;5.00;;;;;;;;6354562;22;8739;-51
2022/04/27 13:36:34;;;;;;;;;8.00;4.25;;;;;;;;6354876;22;9486;-50
2022/04/27 13:39:19;;;;;;;;;6.00;4.00;;;;;;;;6353868;22;8755;-49
2022/04/27 13:42:06;;;;;;;;;9.00;5.50;;;;;;;;6354252;22;8715;-52
2022/04/27 13:44:52;;;;;;;;;8.75;6.00;;;;;;;;6354289;22;8711;-49
2022/04/27 13:47:40;;;;;;;;;9.00;6.50;;;;;;;;6348890;22;10124;-48
2022/04/27 13:50:27;;;;;;;;;3.25;2.50;;;;;;;;6355283;22;8711;-51
2022/04/27 13:53:15;;;;;;;;;6.75;4.00;;;;;;;;6355404;22;8731;-49
2022/04/27 13:56:01;;;;;;;;;6.75;6.75;;;;;;;;6355618;22;8726;-49
2022/04/27 13:58:47;;;;;;;;;6.50;4.00;;;;;;;;6357540;22;9530;-48
2022/04/27 14:01:32;;;;;;;;;6.75;3.50;;;;;;;;6359620;22;8734;-49
2022/04/27 14:04:19;;;;;;;;;7.75;4.00;;;;;;;;6359242;22;8726;-51
2022/04/27 14:07:05;;;;;;;;;3.75;3.25;;;;;;;;6358528;22;9494;-50
2022/04/27 14:10:02;;;;;;;;;3.50;2.75;;;;;;;;6358413;22;8730;-52
2022/04/27 14:18:59;;;;;;;;;2.50;2.00;;;;;;;;6358977;22;8743;-48
2022/04/27 14:22:06;;;;;;;;;16.50;11.00;;;;;;;;6358375;22;8730;-55
2022/04/27 14:24:50;;;;;;;;;7.50;3.25;;;;;;;;6358088;22;8723;-48
2022/04/27 14:27:41;;;;;;;;;5.00;3.50;;;;;;;;6359771;22;8739;-49
2022/04/27 14:30:25;;;;;;;;;5.75;5.00;;;;;;;;6358435;22;8726;-48
2022/04/27 14:33:22;;;;;;;;;7.25;5.25;;;;;;;;6358575;22;8739;-47
2022/04/27 14:36:08;;;;;;;;;8.50;2.25;;;;;;;;6358243;22;8735;-52
2022/04/27 14:38:55;;;;;;;;;5.50;3.00;;;;;;;;6358684;22;9513;-48
2022/04/27 14:41:40;;;;;;;;;11.00;2.50;;;;;;;;6357095;22;8711;-48
2022/04/27 14:44:25;;;;;;;;;2.00;1.00;;;;;;;;6359848;22;8723;-50
2022/04/27 14:47:09;;;;;;;;;6.50;3.00;;;;;;;;6358933;22;9487;-47
2022/04/27 14:49:56;;;;;;;;;5.00;1.75;;;;;;;;6358109;22;8750;-48
2022/04/27 14:52:47;;;;;;;;;6.00;2.50;;;;;;;;6357375;22;8844;-48
2022/04/27 14:55:33;;;;;;;;;3.50;1.75;;;;;;;;6358062;22;8738;-51
2022/04/27 14:58:24;;;;;;;;;3.00;2.00;;;;;;;;6358845;22;8727;-51
2022/04/27 15:01:23;;;;;;;;;3.50;2.25;;;;;;;;6358807;22;8731;-46
2022/04/27 15:04:08;;;;;;;;;3.50;1.00;;;;;;;;6358609;22;8735;-50
2022/04/27 15:06:54;;;;;;;;;4.50;2.75;;;;;;;;6358613;22;9509;-50
2022/04/27 15:09:47;;;;;;;;;3.00;1.00;;;;;;;;6358987;22;8738;-50
2022/04/27 15:12:54;;;;;;;;;3.25;1.00;;;;;;;;6358554;22;9519;-50
2022/04/27 15:15:39;;;;;;;;;1.75;0.00;;;;;;;;6358406;22;8739;-49
2022/04/27 15:18:24;;;;;;;;;3.00;2.00;;;;;;;;6355209;22;9489;-50
2022/04/27 15:24:11;;;;;;;;;1.75;0.50;;;;;;;;6356663;22;8751;-50
2022/04/27 15:27:03;;;;;;;;;7.50;3.00;;;;;;;;6356780;22;8727;-47
2022/04/27 15:29:58;;;;;;;;;4.00;2.25;;;;;;;;6358180;22;8742;-48
2022/04/27 15:32:43;;;;;;;;;5.75;2.25;;;;;;;;6356719;22;8839;-47
2022/04/27 15:35:28;;;;;;;;;4.00;1.75;;;;;;;;6356373;22;8722;-50
2022/04/27 15:38:32;;;;;;;;;4.75;2.75;;;;;;;;6357437;22;8762;-49
2022/04/27 15:41:19;;;;;;;;;1.25;1.25;;;;;;;;6358149;22;8750;-51
2022/04/27 15:44:35;;;;;;;;;4.25;1.50;;;;;;;;6357536;22;8727;-50
2022/04/27 15:47:25;;;;;;;;;8.00;4.75;;;;;;;;6357711;22;8743;-48
2022/04/27 15:50:18;;;;;;;;;3.75;2.25;;;;;;;;6354322;22;8841;-51
2022/04/27 15:53:06;;;;;;;;;5.50;1.25;;;;;;;;6357910;22;8723;-51
2022/04/27 15:55:51;;;;;;;;;6.50;3.50;;;;;;;;6356260;22;8768;-49
2022/04/27 15:58:36;;;;;;;;;3.50;3.50;;;;;;;;6356405;22;8711;-48
2022/04/27 16:01:21;;;;;;;;;6.00;5.25;;;;;;;;6355929;22;8731;-51
2022/04/27 16:04:07;;;;;;;;;11.50;5.00;;;;;;;;6354914;22;8726;-51
2022/04/27 16:07:01;;;;;;;;;4.25;3.75;;;;;;;;6352861;22;8719;-49
2022/04/27 16:09:56;;;;;;;;;2.00;2.00;;;;;;;;6356984;22;9606;-51
2022/04/27 16:13:03;;;;;;;;;2.50;2.00;;;;;;;;6357307;22;8711;-50
2022/04/27 16:15:48;;;;;;;;;8.50;3.50;;;;;;;;6356389;22;8719;-48
2022/04/27 16:18:35;;;;;;;;;3.75;2.00;;;;;;;;6357585;22;8719;-47
2022/04/27 16:24:45;;;;;;;;;5.00;4.25;;;;;;;;6355843;22;9609;-47
2022/04/27 16:27:38;;;;;;;;;9.00;4.00;;;;;;;;6357146;22;8730;-48
2022/04/27 16:30:24;;;;;;;;;8.00;4.25;;;;;;;;6358373;22;8727;-50
2022/04/27 16:33:12;;;;;;;;;7.25;4.00;;;;;;;;6356433;22;8722;-50
2022/04/27 16:36:08;;;;;;;;;6.00;5.50;;;;;;;;6353153;22;8718;-48
2022/04/27 16:38:53;;;;;;;;;15.00;8.25;;;;;;;;6356381;22;8770;-49
2022/04/27 16:41:39;;;;;;;;;10.75;4.75;;;;;;;;6357926;22;8742;-50
2022/04/27 16:44:34;;;;;;;;;9.75;8.50;;;;;;;;6356453;22;8715;-52
2022/04/27 16:47:21;;;;;;;;;8.75;4.00;;;;;;;;6358204;22;8703;-50
2022/04/27 16:50:17;;;;;;;;;8.25;5.00;;;;;;;;6357852;22;8722;-49
2022/04/27 16:53:02;;;;;;;;;8.00;4.00;;;;;;;;6356881;22;8811;-50
2022/04/27 16:55:47;;;;;;;;;13.00;5.00;;;;;;;;6357241;22;8707;-48
2022/04/27 16:58:38;;;;;;;;;5.50;4.00;;;;;;;;6356055;22;8727;-51
2022/04/27 17:01:23;;;;;;;;;8.00;1.75;;;;;;;;6356142;22;8726;-46
2022/04/27 17:04:14;;;;;;;;;3.75;1.00;;;;;;;;6356156;22;8711;-50
2022/04/27 17:06:59;;;;;;;;;8.00;2.25;;;;;;;;6357281;22;8731;-51
2022/04/27 17:09:44;;;;;;;;;5.50;3.75;;;;;;;;6357673;22;8730;-49
2022/04/27 17:12:28;;;;;;;;;4.75;3.75;;;;;;;;6356395;22;9474;-50
2022/04/27 17:15:32;;;;;;;;;5.50;2.75;;;;;;;;6358133;22;8707;-51
2022/04/27 17:18:17;;;;;;;;;5.00;3.00;;;;;;;;6350759;22;8715;-48
2022/04/27 17:21:05;;;;;;;;;5.75;2.75;;;;;;;;6355590;22;8735;-50
2022/04/27 17:23:50;;;;;;;;;2.00;2.00;;;;;;;;6356057;22;8734;-48
2022/04/27 17:29:49;;;;;;;;;2.00;2.00;;;;;;;;6346605;22;8782;-48
2022/04/27 17:32:41;;;;;;;;;3.00;3.00;;;;;;;;6351955;22;8731;-47
2022/04/27 17:35:32;;;;;;;;;6.25;2.25;;;;;;;;6358329;22;8751;-52
2022/04/27 17:38:16;;;;;;;;;4.75;2.00;;;;;;;;6356591;22;8735;-48
2022/04/27 17:41:03;;;;;;;;;6.50;4.75;;;;;;;;6359175;22;8750;-53
2022/04/27 17:43:49;;;;;;;;;5.00;3.50;;;;;;;;6353864;22;8714;-50
2022/04/27 17:46:45;;;;;;;;;5.25;3.00;;;;;;;;6354001;22;8738;-49
2022/04/27 17:49:29;;;;;;;;;9.25;4.25;;;;;;;;6358617;22;8739;-48
2022/04/27 17:52:13;;;;;;;;;5.75;3.00;;;;;;;;6357072;22;8856;-49
2022/04/27 17:55:01;;;;;;;;;5.00;2.25;;;;;;;;6359181;22;8735;-49
2022/04/27 17:57:47;;;;;;;;;4.75;1.75;;;;;;;;6334390;22;8715;-51